sensor_id;sensor_type;location;lat;lon;timestamp;temperature;humidity
25716;DHT22;13573;50.936;4.328;2022-09-13T00:01:00;19.10;99.90
25716;DHT22;13573;50.936;4.328;2022-09-13T00:03:26;18.10;99.90
25716;DHT22;13573;50.936;4.328;2022-09-13T00:05:53;19.10;99.90
25716;DHT22;13573;50.936;4.328;2022-09-13T00:08:20;19.90;99.90
25716;DHT22;13573;50.936;4.328;2022-09-13T00:10:47;19.80;99.90
25716;DHT22;13573;50.936;4.328;2022-09-13T00:13:16;19.70;99.90
25716;DHT22;13573;50.936;4.328;2022-09-13T00:18:12;19.60;99.90
25716;DHT22;13573;50.936;4.328;2022-09-13T00:20:38;19.90;99.90
25716;DHT22;13573;50.936;4.328;2022-09-13T00:23:05;19.80;99.90
25716;DHT22;13573;50.936;4.328;2022-09-13T00:27:59;19.60;99.90
25716;DHT22;13573;50.936;4.328;2022-09-13T00:30:25;19.00;99.90
25716;DHT22;13573;50.936;4.328;2022-09-13T00:32:52;19.50;99.90
25716;DHT22;13573;50.936;4.328;2022-09-13T00:37:46;19.90;99.90
25716;DHT22;13573;50.936;4.328;2022-09-13T00:42:40;20.30;99.90
25716;DHT22;13573;50.936;4.328;2022-09-13T00:45:17;20.00;99.90
25716;DHT22;13573;50.936;4.328;2022-09-13T00:47:50;19.90;99.90
25716;DHT22;13573;50.936;4.328;2022-09-13T00:50:24;19.90;99.90
25716;DHT22;13573;50.936;4.328;2022-09-13T00:53:00;19.30;99.90
25716;DHT22;13573;50.936;4.328;2022-09-13T00:55:34;20.20;99.90
25716;DHT22;13573;50.936;4.328;2022-09-13T01:00:29;20.30;99.90
25716;DHT22;13573;50.936;4.328;2022-09-13T01:03:00;20.50;99.90
25716;DHT22;13573;50.936;4.328;2022-09-13T01:05:31;19.00;99.90
25716;DHT22;13573;50.936;4.328;2022-09-13T01:07:58;18.90;99.90
25716;DHT22;13573;50.936;4.328;2022-09-13T01:10:26;20.50;99.90
25716;DHT22;13573;50.936;4.328;2022-09-13T01:15:22;20.40;99.90
25716;DHT22;13573;50.936;4.328;2022-09-13T01:17:51;19.90;99.90
25716;DHT22;13573;50.936;4.328;2022-09-13T01:20:18;19.90;99.90
25716;DHT22;13573;50.936;4.328;2022-09-13T01:23:05;20.20;99.90
25716;DHT22;13573;50.936;4.328;2022-09-13T01:25:38;20.20;99.90
25716;DHT22;13573;50.936;4.328;2022-09-13T01:28:11;20.20;99.90
25716;DHT22;13573;50.936;4.328;2022-09-13T01:31:00;20.40;99.90
25716;DHT22;13573;50.936;4.328;2022-09-13T01:34:10;19.90;99.90
25716;DHT22;13573;50.936;4.328;2022-09-13T01:36:28;20.30;99.90
25716;DHT22;13573;50.936;4.328;2022-09-13T01:39:13;19.90;99.90
25716;DHT22;13573;50.936;4.328;2022-09-13T01:44:18;20.20;99.90
25716;DHT22;13573;50.936;4.328;2022-09-13T01:49:34;20.40;99.90
25716;DHT22;13573;50.936;4.328;2022-09-13T01:52:07;19.50;99.90
25716;DHT22;13573;50.936;4.328;2022-09-13T01:54:56;19.80;99.90
25716;DHT22;13573;50.936;4.328;2022-09-13T01:57:30;19.90;99.90
25716;DHT22;13573;50.936;4.328;2022-09-13T02:00:04;19.90;99.90
25716;DHT22;13573;50.936;4.328;2022-09-13T02:02:39;19.60;99.90
25716;DHT22;13573;50.936;4.328;2022-09-13T02:08:01;20.10;99.90
25716;DHT22;13573;50.936;4.328;2022-09-13T02:10:32;19.80;99.90
25716;DHT22;13573;50.936;4.328;2022-09-13T02:15:33;19.90;99.90
25716;DHT22;13573;50.936;4.328;2022-09-13T02:18:07;20.00;99.90
25716;DHT22;13573;50.936;4.328;2022-09-13T02:20:37;19.50;99.90
25716;DHT22;13573;50.936;4.328;2022-09-13T02:23:09;19.60;99.90
25716;DHT22;13573;50.936;4.328;2022-09-13T02:25:37;19.80;99.90
25716;DHT22;13573;50.936;4.328;2022-09-13T02:28:08;19.40;99.90
25716;DHT22;13573;50.936;4.328;2022-09-13T02:30:38;19.80;99.90
25716;DHT22;13573;50.936;4.328;2022-09-13T02:33:11;19.10;99.90
25716;DHT22;13573;50.936;4.328;2022-09-13T02:38:11;19.10;99.90
25716;DHT22;13573;50.936;4.328;2022-09-13T02:40:42;19.10;99.90
25716;DHT22;13573;50.936;4.328;2022-09-13T02:43:23;19.60;99.90
25716;DHT22;13573;50.936;4.328;2022-09-13T02:46:17;19.60;99.90
25716;DHT22;13573;50.936;4.328;2022-09-13T02:48:51;20.00;99.90
25716;DHT22;13573;50.936;4.328;2022-09-13T02:51:29;19.30;99.90
25716;DHT22;13573;50.936;4.328;2022-09-13T02:54:03;19.10;99.90
25716;DHT22;13573;50.936;4.328;2022-09-13T02:56:42;20.00;99.90
25716;DHT22;13573;50.936;4.328;2022-09-13T02:59:16;19.20;99.90
25716;DHT22;13573;50.936;4.328;2022-09-13T03:04:21;19.80;99.90
25716;DHT22;13573;50.936;4.328;2022-09-13T03:06:49;18.50;99.90
25716;DHT22;13573;50.936;4.328;2022-09-13T03:09:16;19.90;99.90
25716;DHT22;13573;50.936;4.328;2022-09-13T03:12:10;19.80;99.90
25716;DHT22;13573;50.936;4.328;2022-09-13T03:17:22;19.90;99.90
25716;DHT22;13573;50.936;4.328;2022-09-13T03:20:08;19.70;99.90
25716;DHT22;13573;50.936;4.328;2022-09-13T03:22:57;20.20;99.90
25716;DHT22;13573;50.936;4.328;2022-09-13T03:25:43;19.30;99.90
25716;DHT22;13573;50.936;4.328;2022-09-13T03:28:30;19.20;99.90
25716;DHT22;13573;50.936;4.328;2022-09-13T03:31:06;19.20;99.90
25716;DHT22;13573;50.936;4.328;2022-09-13T03:33:42;19.70;99.90
25716;DHT22;13573;50.936;4.328;2022-09-13T03:36:18;19.50;99.90
25716;DHT22;13573;50.936;4.328;2022-09-13T03:38:54;18.40;99.90
25716;DHT22;13573;50.936;4.328;2022-09-13T03:41:23;19.40;99.90
25716;DHT22;13573;50.936;4.328;2022-09-13T03:43:54;19.40;99.90
25716;DHT22;13573;50.936;4.328;2022-09-13T03:46:32;19.70;99.90
25716;DHT22;13573;50.936;4.328;2022-09-13T03:49:04;19.60;99.90
25716;DHT22;13573;50.936;4.328;2022-09-13T03:51:32;19.30;99.90
25716;DHT22;13573;50.936;4.328;2022-09-13T03:54:02;18.80;99.90
25716;DHT22;13573;50.936;4.328;2022-09-13T03:56:29;19.40;99.90
25716;DHT22;13573;50.936;4.328;2022-09-13T03:58:57;19.30;99.90
25716;DHT22;13573;50.936;4.328;2022-09-13T04:01:24;18.30;99.90
25716;DHT22;13573;50.936;4.328;2022-09-13T04:03:50;19.50;99.90
25716;DHT22;13573;50.936;4.328;2022-09-13T04:06:17;19.60;99.90
25716;DHT22;13573;50.936;4.328;2022-09-13T04:08:44;19.30;99.90
25716;DHT22;13573;50.936;4.328;2022-09-13T04:11:10;19.50;99.90
25716;DHT22;13573;50.936;4.328;2022-09-13T04:13:37;19.30;99.90
25716;DHT22;13573;50.936;4.328;2022-09-13T04:16:05;19.20;99.90
25716;DHT22;13573;50.936;4.328;2022-09-13T04:18:32;19.70;99.90
25716;DHT22;13573;50.936;4.328;2022-09-13T04:21:00;19.40;99.90
25716;DHT22;13573;50.936;4.328;2022-09-13T04:23:28;19.70;99.90
25716;DHT22;13573;50.936;4.328;2022-09-13T04:26:02;19.30;99.90
25716;DHT22;13573;50.936;4.328;2022-09-13T04:28:28;19.40;99.90
25716;DHT22;13573;50.936;4.328;2022-09-13T04:30:56;19.90;99.90
25716;DHT22;13573;50.936;4.328;2022-09-13T04:33:22;20.00;99.90
25716;DHT22;13573;50.936;4.328;2022-09-13T04:35:53;18.50;99.90
25716;DHT22;13573;50.936;4.328;2022-09-13T04:38:21;20.00;99.90
25716;DHT22;13573;50.936;4.328;2022-09-13T04:40:53;19.90;99.90
25716;DHT22;13573;50.936;4.328;2022-09-13T04:43:20;19.30;99.90
25716;DHT22;13573;50.936;4.328;2022-09-13T04:45:47;19.70;99.90
25716;DHT22;13573;50.936;4.328;2022-09-13T04:48:13;19.70;99.90
25716;DHT22;13573;50.936;4.328;2022-09-13T04:50:40;19.70;99.90
25716;DHT22;13573;50.936;4.328;2022-09-13T04:53:07;19.40;99.90
25716;DHT22;13573;50.936;4.328;2022-09-13T04:55:34;19.40;99.90
25716;DHT22;13573;50.936;4.328;2022-09-13T04:58:02;19.70;99.90
25716;DHT22;13573;50.936;4.328;2022-09-13T05:00:30;19.40;99.90
25716;DHT22;13573;50.936;4.328;2022-09-13T05:02:56;19.60;99.90
25716;DHT22;13573;50.936;4.328;2022-09-13T05:05:23;19.60;99.90
25716;DHT22;13573;50.936;4.328;2022-09-13T05:07:51;19.40;99.90
25716;DHT22;13573;50.936;4.328;2022-09-13T05:10:19;19.50;99.90
25716;DHT22;13573;50.936;4.328;2022-09-13T05:12:45;20.00;99.90
25716;DHT22;13573;50.936;4.328;2022-09-13T05:15:12;20.30;99.90
25716;DHT22;13573;50.936;4.328;2022-09-13T05:17:39;20.40;99.90
25716;DHT22;13573;50.936;4.328;2022-09-13T05:20:06;20.30;99.90
25716;DHT22;13573;50.936;4.328;2022-09-13T05:22:32;20.40;99.90
25716;DHT22;13573;50.936;4.328;2022-09-13T05:24:59;20.50;99.90
25716;DHT22;13573;50.936;4.328;2022-09-13T05:27:26;20.00;99.90
25716;DHT22;13573;50.936;4.328;2022-09-13T05:29:52;20.20;99.90
25716;DHT22;13573;50.936;4.328;2022-09-13T05:32:19;20.50;99.90
25716;DHT22;13573;50.936;4.328;2022-09-13T05:34:46;20.80;99.90
25716;DHT22;13573;50.936;4.328;2022-09-13T05:39:39;21.20;99.90
25716;DHT22;13573;50.936;4.328;2022-09-13T05:42:06;20.90;99.90
25716;DHT22;13573;50.936;4.328;2022-09-13T05:44:32;20.90;99.90
25716;DHT22;13573;50.936;4.328;2022-09-13T05:46:59;20.20;99.90
25716;DHT22;13573;50.936;4.328;2022-09-13T05:49:26;20.60;99.90
25716;DHT22;13573;50.936;4.328;2022-09-13T05:51:52;20.80;99.90
25716;DHT22;13573;50.936;4.328;2022-09-13T05:54:19;20.80;99.90
25716;DHT22;13573;50.936;4.328;2022-09-13T06:01:39;21.50;99.90
25716;DHT22;13573;50.936;4.328;2022-09-13T06:06:33;21.40;99.90
25716;DHT22;13573;50.936;4.328;2022-09-13T06:09:01;20.90;99.90
25716;DHT22;13573;50.936;4.328;2022-09-13T06:13:54;21.10;99.90
25716;DHT22;13573;50.936;4.328;2022-09-13T06:18:47;21.30;99.90
25716;DHT22;13573;50.936;4.328;2022-09-13T06:23:46;21.20;99.90
25716;DHT22;13573;50.936;4.328;2022-09-13T06:28:41;20.50;99.90
25716;DHT22;13573;50.936;4.328;2022-09-13T06:31:11;21.00;99.90
25716;DHT22;13573;50.936;4.328;2022-09-13T06:33:40;21.30;99.90
25716;DHT22;13573;50.936;4.328;2022-09-13T06:36:12;21.20;99.90
25716;DHT22;13573;50.936;4.328;2022-09-13T06:38:41;22.20;99.90
25716;DHT22;13573;50.936;4.328;2022-09-13T06:41:10;21.60;99.90
25716;DHT22;13573;50.936;4.328;2022-09-13T06:43:39;19.90;99.90
25716;DHT22;13573;50.936;4.328;2022-09-13T06:46:11;21.50;99.90
25716;DHT22;13573;50.936;4.328;2022-09-13T06:51:09;21.70;99.90
25716;DHT22;13573;50.936;4.328;2022-09-13T06:53:37;21.70;99.90
25716;DHT22;13573;50.936;4.328;2022-09-13T06:56:09;21.60;99.90
25716;DHT22;13573;50.936;4.328;2022-09-13T07:01:13;20.90;99.90
25716;DHT22;13573;50.936;4.328;2022-09-13T07:08:38;21.90;99.90
25716;DHT22;13573;50.936;4.328;2022-09-13T07:11:05;22.10;99.90
25716;DHT22;13573;50.936;4.328;2022-09-13T07:13:32;23.10;99.90
25716;DHT22;13573;50.936;4.328;2022-09-13T07:18:28;21.10;99.90
25716;DHT22;13573;50.936;4.328;2022-09-13T07:21:00;22.70;99.90
25716;DHT22;13573;50.936;4.328;2022-09-13T07:23:29;22.30;99.90
25716;DHT22;13573;50.936;4.328;2022-09-13T07:25:57;22.40;99.90
25716;DHT22;13573;50.936;4.328;2022-09-13T07:28:31;21.40;99.90
25716;DHT22;13573;50.936;4.328;2022-09-13T07:31:10;22.90;99.90
25716;DHT22;13573;50.936;4.328;2022-09-13T07:33:39;22.90;99.90
25716;DHT22;13573;50.936;4.328;2022-09-13T07:36:07;23.70;99.90
25716;DHT22;13573;50.936;4.328;2022-09-13T07:38:41;24.30;99.90
25716;DHT22;13573;50.936;4.328;2022-09-13T07:43:39;25.70;99.90
25716;DHT22;13573;50.936;4.328;2022-09-13T07:46:11;25.40;99.90
25716;DHT22;13573;50.936;4.328;2022-09-13T07:53:35;27.00;99.90
25716;DHT22;13573;50.936;4.328;2022-09-13T07:56:07;27.00;99.90
25716;DHT22;13573;50.936;4.328;2022-09-13T07:58:35;27.00;99.90
25716;DHT22;13573;50.936;4.328;2022-09-13T08:01:14;28.30;99.90
25716;DHT22;13573;50.936;4.328;2022-09-13T08:03:41;28.30;99.90
25716;DHT22;13573;50.936;4.328;2022-09-13T08:06:08;29.80;99.90
25716;DHT22;13573;50.936;4.328;2022-09-13T08:11:04;31.00;99.90
25716;DHT22;13573;50.936;4.328;2022-09-13T08:13:33;31.20;99.90
25716;DHT22;13573;50.936;4.328;2022-09-13T08:16:03;31.40;99.90
25716;DHT22;13573;50.936;4.328;2022-09-13T08:18:32;29.70;99.90
25716;DHT22;13573;50.936;4.328;2022-09-13T08:23:27;31.10;99.90
25716;DHT22;13573;50.936;4.328;2022-09-13T08:26:00;30.90;99.90
25716;DHT22;13573;50.936;4.328;2022-09-13T08:28:28;29.80;99.90
25716;DHT22;13573;50.936;4.328;2022-09-13T08:31:02;29.10;99.90
25716;DHT22;13573;50.936;4.328;2022-09-13T08:33:29;28.30;99.90
25716;DHT22;13573;50.936;4.328;2022-09-13T08:35:57;28.70;99.90
25716;DHT22;13573;50.936;4.328;2022-09-13T08:38:24;28.40;99.90
25716;DHT22;13573;50.936;4.328;2022-09-13T08:40:54;27.60;99.90
25716;DHT22;13573;50.936;4.328;2022-09-13T08:44:33;27.10;99.90
25716;DHT22;13573;50.936;4.328;2022-09-13T08:48:47;26.90;99.90
25716;DHT22;13573;50.936;4.328;2022-09-13T08:51:39;26.20;99.90
25716;DHT22;13573;50.936;4.328;2022-09-13T08:54:07;22.60;99.90
25716;DHT22;13573;50.936;4.328;2022-09-13T08:56:39;26.50;99.90
25716;DHT22;13573;50.936;4.328;2022-09-13T09:02:29;27.90;99.90
25716;DHT22;13573;50.936;4.328;2022-09-13T09:05:04;27.30;99.90
25716;DHT22;13573;50.936;4.328;2022-09-13T09:07:35;27.70;99.90
25716;DHT22;13573;50.936;4.328;2022-09-13T09:10:10;27.30;99.90
25716;DHT22;13573;50.936;4.328;2022-09-13T09:17:54;28.40;99.90
25716;DHT22;13573;50.936;4.328;2022-09-13T09:25:23;27.70;99.90
25716;DHT22;13573;50.936;4.328;2022-09-13T09:27:52;27.40;99.90
25716;DHT22;13573;50.936;4.328;2022-09-13T09:30:19;27.40;99.90
25716;DHT22;13573;50.936;4.328;2022-09-13T09:35:41;26.60;99.90
25716;DHT22;13573;50.936;4.328;2022-09-13T09:38:35;27.20;99.90
25716;DHT22;13573;50.936;4.328;2022-09-13T09:41:04;28.10;99.90
25716;DHT22;13573;50.936;4.328;2022-09-13T09:43:38;28.20;99.90
25716;DHT22;13573;50.936;4.328;2022-09-13T09:48:38;27.90;99.90
25716;DHT22;13573;50.936;4.328;2022-09-13T09:51:07;27.10;99.90
25716;DHT22;13573;50.936;4.328;2022-09-13T09:53:40;27.40;99.90
25716;DHT22;13573;50.936;4.328;2022-09-13T09:56:30;27.40;99.90
25716;DHT22;13573;50.936;4.328;2022-09-13T09:58:59;27.60;99.90
25716;DHT22;13573;50.936;4.328;2022-09-13T10:01:30;25.70;99.90
25716;DHT22;13573;50.936;4.328;2022-09-13T10:04:05;27.70;99.90
25716;DHT22;13573;50.936;4.328;2022-09-13T10:06:34;29.00;99.90
25716;DHT22;13573;50.936;4.328;2022-09-13T10:09:05;28.70;99.90
25716;DHT22;13573;50.936;4.328;2022-09-13T10:11:42;28.50;99.90
25716;DHT22;13573;50.936;4.328;2022-09-13T10:14:27;29.10;99.90
25716;DHT22;13573;50.936;4.328;2022-09-13T10:17:01;28.80;99.90
25716;DHT22;13573;50.936;4.328;2022-09-13T10:19:30;28.00;99.90
25716;DHT22;13573;50.936;4.328;2022-09-13T10:22:02;27.80;99.90
25716;DHT22;13573;50.936;4.328;2022-09-13T10:27:00;27.80;99.90
25716;DHT22;13573;50.936;4.328;2022-09-13T10:29:30;26.90;99.90
25716;DHT22;13573;50.936;4.328;2022-09-13T10:31:57;28.00;99.90
25716;DHT22;13573;50.936;4.328;2022-09-13T10:34:29;27.20;99.90
25716;DHT22;13573;50.936;4.328;2022-09-13T10:39:35;28.90;99.90
25716;DHT22;13573;50.936;4.328;2022-09-13T10:42:06;28.80;99.90
25716;DHT22;13573;50.936;4.328;2022-09-13T10:44:43;28.90;99.90
25716;DHT22;13573;50.936;4.328;2022-09-13T10:47:21;28.50;99.90
25716;DHT22;13573;50.936;4.328;2022-09-13T10:49:53;28.20;99.90
25716;DHT22;13573;50.936;4.328;2022-09-13T10:54:50;30.00;99.90
25716;DHT22;13573;50.936;4.328;2022-09-13T10:57:33;28.60;99.90
25716;DHT22;13573;50.936;4.328;2022-09-13T11:00:04;30.70;99.90
25716;DHT22;13573;50.936;4.328;2022-09-13T11:02:38;30.40;99.90
25716;DHT22;13573;50.936;4.328;2022-09-13T11:10:18;30.50;99.90
25716;DHT22;13573;50.936;4.328;2022-09-13T11:13:36;30.30;99.90
25716;DHT22;13573;50.936;4.328;2022-09-13T11:18:48;30.50;99.90
25716;DHT22;13573;50.936;4.328;2022-09-13T11:21:38;30.30;99.90
25716;DHT22;13573;50.936;4.328;2022-09-13T11:24:10;29.70;99.90
25716;DHT22;13573;50.936;4.328;2022-09-13T11:26:47;30.70;99.90
25716;DHT22;13573;50.936;4.328;2022-09-13T11:30:00;30.80;99.90
25716;DHT22;13573;50.936;4.328;2022-09-13T11:35:07;30.20;99.90
25716;DHT22;13573;50.936;4.328;2022-09-13T11:37:39;30.60;99.90
25716;DHT22;13573;50.936;4.328;2022-09-13T11:40:20;28.90;99.90
25716;DHT22;13573;50.936;4.328;2022-09-13T11:43:04;28.40;99.90
25716;DHT22;13573;50.936;4.328;2022-09-13T11:45:39;29.60;99.90
25716;DHT22;13573;50.936;4.328;2022-09-13T11:55:58;29.40;99.90
25716;DHT22;13573;50.936;4.328;2022-09-13T12:00:59;28.90;99.90
25716;DHT22;13573;50.936;4.328;2022-09-13T12:03:37;30.00;99.90
25716;DHT22;13573;50.936;4.328;2022-09-13T12:08:37;27.60;99.90
25716;DHT22;13573;50.936;4.328;2022-09-13T12:11:24;29.80;99.90
25716;DHT22;13573;50.936;4.328;2022-09-13T12:13:54;29.00;99.90
25716;DHT22;13573;50.936;4.328;2022-09-13T12:16:25;28.50;99.90
25716;DHT22;13573;50.936;4.328;2022-09-13T12:18:57;29.00;99.90
25716;DHT22;13573;50.936;4.328;2022-09-13T12:24:04;28.20;99.90
25716;DHT22;13573;50.936;4.328;2022-09-13T12:26:38;28.80;99.90
25716;DHT22;13573;50.936;4.328;2022-09-13T12:29:13;29.70;99.90
25716;DHT22;13573;50.936;4.328;2022-09-13T12:31:42;28.60;99.90
25716;DHT22;13573;50.936;4.328;2022-09-13T12:34:17;28.10;99.90
25716;DHT22;13573;50.936;4.328;2022-09-13T12:39:56;26.70;99.90
25716;DHT22;13573;50.936;4.328;2022-09-13T12:42:49;27.30;99.90
25716;DHT22;13573;50.936;4.328;2022-09-13T12:45:29;27.40;99.90
25716;DHT22;13573;50.936;4.328;2022-09-13T12:48:05;27.60;99.90
25716;DHT22;13573;50.936;4.328;2022-09-13T12:56:00;26.60;99.90
25716;DHT22;13573;50.936;4.328;2022-09-13T12:58:58;26.50;99.90
25716;DHT22;13573;50.936;4.328;2022-09-13T13:01:24;27.80;99.90
25716;DHT22;13573;50.936;4.328;2022-09-13T13:04:02;27.40;99.90
25716;DHT22;13573;50.936;4.328;2022-09-13T13:06:34;27.60;99.90
25716;DHT22;13573;50.936;4.328;2022-09-13T13:11:41;27.40;99.90
25716;DHT22;13573;50.936;4.328;2022-09-13T13:14:25;25.70;99.90
25716;DHT22;13573;50.936;4.328;2022-09-13T13:16:39;27.00;99.90
25716;DHT22;13573;50.936;4.328;2022-09-13T13:19:30;25.90;99.90
25716;DHT22;13573;50.936;4.328;2022-09-13T13:24:37;26.50;99.90
25716;DHT22;13573;50.936;4.328;2022-09-13T13:29:40;26.70;99.90
25716;DHT22;13573;50.936;4.328;2022-09-13T13:32:10;28.60;99.90
25716;DHT22;13573;50.936;4.328;2022-09-13T13:34:43;27.00;99.90
25716;DHT22;13573;50.936;4.328;2022-09-13T13:37:27;25.30;99.90
25716;DHT22;13573;50.936;4.328;2022-09-13T13:40:09;26.80;99.90
25716;DHT22;13573;50.936;4.328;2022-09-13T13:42:36;26.60;99.90
25716;DHT22;13573;50.936;4.328;2022-09-13T13:45:15;26.10;99.90
25716;DHT22;13573;50.936;4.328;2022-09-13T13:50:29;26.80;99.90
25716;DHT22;13573;50.936;4.328;2022-09-13T13:52:57;26.90;99.90
25716;DHT22;13573;50.936;4.328;2022-09-13T14:05:45;26.50;99.90
25716;DHT22;13573;50.936;4.328;2022-09-13T14:09:46;26.70;99.90
25716;DHT22;13573;50.936;4.328;2022-09-13T14:11:33;26.50;99.90
25716;DHT22;13573;50.936;4.328;2022-09-13T14:19:10;26.40;99.90
25716;DHT22;13573;50.936;4.328;2022-09-13T14:21:36;26.30;99.90
25716;DHT22;13573;50.936;4.328;2022-09-13T14:24:17;25.50;99.90
25716;DHT22;13573;50.936;4.328;2022-09-13T14:26:48;25.60;99.90
25716;DHT22;13573;50.936;4.328;2022-09-13T14:29:18;25.30;99.90
25716;DHT22;13573;50.936;4.328;2022-09-13T14:31:48;25.20;99.90
25716;DHT22;13573;50.936;4.328;2022-09-13T14:34:27;25.30;99.90
25716;DHT22;13573;50.936;4.328;2022-09-13T14:36:58;25.40;99.90
25716;DHT22;13573;50.936;4.328;2022-09-13T14:39:28;25.20;99.90
25716;DHT22;13573;50.936;4.328;2022-09-13T14:42:09;24.40;99.90
25716;DHT22;13573;50.936;4.328;2022-09-13T14:44:30;25.50;99.90
25716;DHT22;13573;50.936;4.328;2022-09-13T14:47:34;25.20;99.90
25716;DHT22;13573;50.936;4.328;2022-09-13T14:49:48;24.70;99.90
25716;DHT22;13573;50.936;4.328;2022-09-13T14:54:47;25.40;99.90
25716;DHT22;13573;50.936;4.328;2022-09-13T14:57:24;24.10;99.90
25716;DHT22;13573;50.936;4.328;2022-09-13T14:59:53;25.70;99.90
25716;DHT22;13573;50.936;4.328;2022-09-13T15:02:25;25.90;99.90
25716;DHT22;13573;50.936;4.328;2022-09-13T15:04:55;25.80;99.90
25716;DHT22;13573;50.936;4.328;2022-09-13T15:07:32;24.00;99.90
25716;DHT22;13573;50.936;4.328;2022-09-13T15:10:20;25.50;99.90
25716;DHT22;13573;50.936;4.328;2022-09-13T15:12:52;25.20;99.90
25716;DHT22;13573;50.936;4.328;2022-09-13T15:15:22;25.40;99.90
25716;DHT22;13573;50.936;4.328;2022-09-13T15:17:58;25.30;99.90
25716;DHT22;13573;50.936;4.328;2022-09-13T15:20:27;25.00;99.90
25716;DHT22;13573;50.936;4.328;2022-09-13T15:22:54;24.90;99.90
25716;DHT22;13573;50.936;4.328;2022-09-13T15:25:25;23.80;99.90
25716;DHT22;13573;50.936;4.328;2022-09-13T15:27:55;24.20;99.90
25716;DHT22;13573;50.936;4.328;2022-09-13T15:30:26;25.60;99.90
25716;DHT22;13573;50.936;4.328;2022-09-13T15:33:05;24.70;99.90
25716;DHT22;13573;50.936;4.328;2022-09-13T15:35:38;25.40;99.90
25716;DHT22;13573;50.936;4.328;2022-09-13T15:38:15;25.10;99.90
25716;DHT22;13573;50.936;4.328;2022-09-13T15:43:11;24.50;99.90
25716;DHT22;13573;50.936;4.328;2022-09-13T15:45:37;25.20;99.90
25716;DHT22;13573;50.936;4.328;2022-09-13T15:48:04;23.10;99.90
25716;DHT22;13573;50.936;4.328;2022-09-13T15:50:32;24.40;99.90
25716;DHT22;13573;50.936;4.328;2022-09-13T15:55:30;24.50;99.90
25716;DHT22;13573;50.936;4.328;2022-09-13T15:57:57;25.40;99.90
25716;DHT22;13573;50.936;4.328;2022-09-13T16:00:25;25.40;99.90
25716;DHT22;13573;50.936;4.328;2022-09-13T16:02:53;24.60;99.90
25716;DHT22;13573;50.936;4.328;2022-09-13T16:07:47;24.30;99.90
25716;DHT22;13573;50.936;4.328;2022-09-13T16:10:18;24.40;99.90
25716;DHT22;13573;50.936;4.328;2022-09-13T16:12:45;24.30;99.90
25716;DHT22;13573;50.936;4.328;2022-09-13T16:15:11;23.90;99.90
25716;DHT22;13573;50.936;4.328;2022-09-13T16:17:38;24.10;99.90
25716;DHT22;13573;50.936;4.328;2022-09-13T16:20:06;24.00;99.90
25716;DHT22;13573;50.936;4.328;2022-09-13T16:22:34;23.50;99.90
25716;DHT22;13573;50.936;4.328;2022-09-13T16:25:01;24.00;99.90
25716;DHT22;13573;50.936;4.328;2022-09-13T16:27:28;24.00;99.90
25716;DHT22;13573;50.936;4.328;2022-09-13T16:29:55;24.60;99.90
25716;DHT22;13573;50.936;4.328;2022-09-13T16:32:21;24.50;99.90
25716;DHT22;13573;50.936;4.328;2022-09-13T16:34:48;24.60;99.90
25716;DHT22;13573;50.936;4.328;2022-09-13T16:37:16;23.10;99.90
25716;DHT22;13573;50.936;4.328;2022-09-13T16:39:44;23.90;99.90
25716;DHT22;13573;50.936;4.328;2022-09-13T16:42:12;23.30;99.90
25716;DHT22;13573;50.936;4.328;2022-09-13T16:44:40;24.40;99.90
25716;DHT22;13573;50.936;4.328;2022-09-13T16:47:07;24.40;99.90
25716;DHT22;13573;50.936;4.328;2022-09-13T16:49:35;24.20;99.90
25716;DHT22;13573;50.936;4.328;2022-09-13T16:52:01;23.50;99.90
25716;DHT22;13573;50.936;4.328;2022-09-13T16:54:28;23.80;99.90
25716;DHT22;13573;50.936;4.328;2022-09-13T16:56:56;23.40;99.90
25716;DHT22;13573;50.936;4.328;2022-09-13T16:59:23;23.50;99.90
25716;DHT22;13573;50.936;4.328;2022-09-13T17:01:50;23.90;99.90
25716;DHT22;13573;50.936;4.328;2022-09-13T17:04:17;23.90;99.90
25716;DHT22;13573;50.936;4.328;2022-09-13T17:06:44;23.70;99.90
25716;DHT22;13573;50.936;4.328;2022-09-13T17:09:11;23.30;99.90
25716;DHT22;13573;50.936;4.328;2022-09-13T17:11:41;24.30;99.90
25716;DHT22;13573;50.936;4.328;2022-09-13T17:14:10;23.00;99.90
25716;DHT22;13573;50.936;4.328;2022-09-13T17:16:40;23.60;99.90
25716;DHT22;13573;50.936;4.328;2022-09-13T17:19:13;22.70;99.90
25716;DHT22;13573;50.936;4.328;2022-09-13T17:21:39;23.40;99.90
25716;DHT22;13573;50.936;4.328;2022-09-13T17:24:06;22.60;99.90
25716;DHT22;13573;50.936;4.328;2022-09-13T17:26:33;23.40;99.90
25716;DHT22;13573;50.936;4.328;2022-09-13T17:28:59;23.00;99.90
25716;DHT22;13573;50.936;4.328;2022-09-13T17:31:26;22.80;99.90
25716;DHT22;13573;50.936;4.328;2022-09-13T17:33:53;22.50;99.90
25716;DHT22;13573;50.936;4.328;2022-09-13T17:38:46;23.00;99.90
25716;DHT22;13573;50.936;4.328;2022-09-13T17:41:16;23.30;99.90
25716;DHT22;13573;50.936;4.328;2022-09-13T17:43:44;22.80;99.90
25716;DHT22;13573;50.936;4.328;2022-09-13T17:46:15;23.00;99.90
25716;DHT22;13573;50.936;4.328;2022-09-13T17:48:43;23.00;99.90
25716;DHT22;13573;50.936;4.328;2022-09-13T17:51:13;23.30;99.90
25716;DHT22;13573;50.936;4.328;2022-09-13T17:53:42;21.80;99.90
25716;DHT22;13573;50.936;4.328;2022-09-13T17:56:14;22.70;99.90
25716;DHT22;13573;50.936;4.328;2022-09-13T17:58:39;22.50;99.90
25716;DHT22;13573;50.936;4.328;2022-09-13T18:03:34;23.30;99.90
25716;DHT22;13573;50.936;4.328;2022-09-13T18:06:02;21.80;99.90
25716;DHT22;13573;50.936;4.328;2022-09-13T18:08:31;21.40;99.90
25716;DHT22;13573;50.936;4.328;2022-09-13T18:11:09;22.20;99.90
25716;DHT22;13573;50.936;4.328;2022-09-13T18:13:36;22.10;99.90
25716;DHT22;13573;50.936;4.328;2022-09-13T18:16:06;22.40;99.90
25716;DHT22;13573;50.936;4.328;2022-09-13T18:18:34;22.90;99.90
25716;DHT22;13573;50.936;4.328;2022-09-13T18:21:01;22.30;99.90
25716;DHT22;13573;50.936;4.328;2022-09-13T18:30:55;23.30;99.90
25716;DHT22;13573;50.936;4.328;2022-09-13T18:33:23;23.70;99.90
25716;DHT22;13573;50.936;4.328;2022-09-13T18:35:59;22.50;99.90
25716;DHT22;13573;50.936;4.328;2022-09-13T18:38:27;23.00;99.90
25716;DHT22;13573;50.936;4.328;2022-09-13T18:41:00;23.20;99.90
25716;DHT22;13573;50.936;4.328;2022-09-13T18:43:27;21.20;99.90
25716;DHT22;13573;50.936;4.328;2022-09-13T18:45:56;20.40;99.90
25716;DHT22;13573;50.936;4.328;2022-09-13T18:48:23;21.70;99.90
25716;DHT22;13573;50.936;4.328;2022-09-13T18:50:50;22.00;99.90
25716;DHT22;13573;50.936;4.328;2022-09-13T18:53:17;22.20;99.90
25716;DHT22;13573;50.936;4.328;2022-09-13T18:55:43;22.00;99.90
25716;DHT22;13573;50.936;4.328;2022-09-13T18:58:10;21.70;99.90
25716;DHT22;13573;50.936;4.328;2022-09-13T19:03:03;22.70;99.90
25716;DHT22;13573;50.936;4.328;2022-09-13T19:05:32;23.00;99.90
25716;DHT22;13573;50.936;4.328;2022-09-13T19:08:01;22.40;99.90